createdAt,value
2022-12-08T00:00:47.495Z,97832.75
2022-12-08T00:03:51.021Z,97828.97
2022-12-08T00:07:11.931Z,97818.19
2022-12-08T00:10:47.397Z,97821.22
2022-12-08T00:13:37.983Z,97824.19
2022-12-08T00:16:42.356Z,97828.22
2022-12-08T00:19:45.948Z,97823.50
2022-12-08T00:22:48.727Z,97821.00
2022-12-08T00:25:51.897Z,97804.47
2022-12-08T00:28:57.171Z,97804.34
2022-12-08T00:32:01.656Z,97798.16
2022-12-08T00:35:06.977Z,97794.44
2022-12-08T00:38:09.940Z,97798.69
2022-12-08T00:41:15.289Z,97803.53
2022-12-08T00:44:20.072Z,97807.66
2022-12-08T00:47:27.630Z,97797.84
2022-12-08T00:50:30.363Z,97805.16
2022-12-08T00:53:33.169Z,97795.72
2022-12-08T00:56:36.557Z,97797.34
2022-12-08T00:59:39.402Z,97795.38
2022-12-08T01:02:43.781Z,97792.56
2022-12-08T01:05:46.652Z,97792.81
2022-12-08T01:08:49.723Z,97787.06
2022-12-08T01:11:52.693Z,97784.53
2022-12-08T01:15:00.621Z,97785.66
2022-12-08T01:18:07.109Z,97793.66
2022-12-08T01:21:10.048Z,97792.28
2022-12-08T01:24:14.484Z,97797.97
2022-12-08T01:27:17.845Z,97798.72
2022-12-08T01:30:21.425Z,97802.03
2022-12-08T01:33:26.117Z,97794.75
2022-12-08T01:36:30.520Z,97800.72
2022-12-08T01:39:33.555Z,97795.53
2022-12-08T01:42:38.372Z,97791.06
2022-12-08T01:45:43.103Z,97787.84
2022-12-08T01:48:47.809Z,97793.75
2022-12-08T01:51:56.294Z,97786.06
2022-12-08T01:55:03.702Z,97792.38
2022-12-08T01:58:16.323Z,97781.44
2022-12-08T02:01:19.364Z,97779.25
2022-12-08T02:04:23.736Z,97772.34
2022-12-08T02:07:26.852Z,97767.09
2022-12-08T02:10:32.218Z,97766.38
2022-12-08T02:13:37.488Z,97758.97
2022-12-08T02:16:46.862Z,97758.59
2022-12-08T02:20:14.801Z,97758.03
2022-12-08T02:23:25.233Z,97748.25
2022-12-08T02:27:08.923Z,97748.47
2022-12-08T02:30:23.014Z,97741.75
2022-12-08T02:33:54.541Z,97743.44
2022-12-08T02:37:06.929Z,97738.88
2022-12-08T02:40:19.885Z,97736.03
2022-12-08T02:43:30.708Z,97730.00
2022-12-08T02:46:36.684Z,97739.50
2022-12-08T02:49:41.784Z,97735.91
2022-12-08T02:52:46.550Z,97741.19
2022-12-08T02:55:59.060Z,97738.97
2022-12-08T02:59:19.071Z,97727.91
2022-12-08T03:02:41.868Z,97732.97
2022-12-08T03:06:02.546Z,97727.09
2022-12-08T03:09:11.610Z,97733.97
2022-12-08T03:12:19.998Z,97729.16
2022-12-08T03:15:23.315Z,97724.28
2022-12-08T03:18:34.783Z,97720.00
2022-12-08T03:21:41.358Z,97713.34
2022-12-08T03:24:47.938Z,97707.00
2022-12-08T03:27:52.668Z,97706.44
2022-12-08T03:30:59.386Z,97710.75
2022-12-08T03:34:03.886Z,97705.41
2022-12-08T03:37:10.444Z,97704.84
2022-12-08T03:40:16.246Z,97708.56
2022-12-08T03:43:19.173Z,97698.91
2022-12-08T03:49:26.031Z,97693.19
2022-12-08T03:52:30.652Z,97687.38
2022-12-08T03:55:33.353Z,97690.44
2022-12-08T03:58:37.659Z,97682.56
2022-12-08T04:01:40.874Z,97682.38
2022-12-08T04:04:44.191Z,97679.84
2022-12-08T04:07:48.347Z,97670.56
2022-12-08T04:10:51.074Z,97678.06
2022-12-08T04:13:54.437Z,97683.41
2022-12-08T04:16:57.291Z,97671.69
2022-12-08T04:20:00.186Z,97665.25
2022-12-08T04:23:04.558Z,97670.28
2022-12-08T04:26:08.321Z,97659.75
2022-12-08T04:29:11.160Z,97669.69
2022-12-08T04:32:13.998Z,97665.09
2022-12-08T04:35:17.305Z,97672.59
2022-12-08T04:38:21.541Z,97672.25
2022-12-08T04:41:24.473Z,97660.31
2022-12-08T04:44:29.979Z,97669.09
2022-12-08T04:47:36.120Z,97665.41
2022-12-08T04:50:40.789Z,97654.84
2022-12-08T04:53:46.849Z,97658.72
2022-12-08T04:56:49.862Z,97646.63
2022-12-08T04:59:52.846Z,97650.06
2022-12-08T05:02:55.701Z,97650.44
2022-12-08T05:06:00.707Z,97640.31
2022-12-08T05:09:05.211Z,97647.44
2022-12-08T05:12:08.595Z,97639.94
2022-12-08T05:15:11.797Z,97644.63
2022-12-08T05:18:15.800Z,97636.81
2022-12-08T05:21:18.590Z,97642.69
2022-12-08T05:24:23.019Z,97625.50
2022-12-08T05:27:25.925Z,97632.22
2022-12-08T05:30:29.607Z,97632.28
2022-12-08T05:33:32.748Z,97636.88
2022-12-08T05:36:35.688Z,97643.81
2022-12-08T05:39:40.310Z,97647.47
2022-12-08T05:42:43.573Z,97646.91
2022-12-08T05:45:47.109Z,97642.84
2022-12-08T05:48:49.979Z,97644.88
2022-12-08T05:51:55.495Z,97645.84
2022-12-08T05:54:59.819Z,97640.81
2022-12-08T05:58:07.608Z,97637.59
2022-12-08T06:01:20.037Z,97629.09
2022-12-08T06:04:23.350Z,97628.84
2022-12-08T06:07:26.234Z,97630.25
2022-12-08T06:10:31.293Z,97633.88
2022-12-08T06:13:34.061Z,97631.72
2022-12-08T06:16:37.586Z,97634.97
2022-12-08T06:19:42.017Z,97639.78
2022-12-08T06:22:44.934Z,97625.66
2022-12-08T06:25:49.268Z,97638.03
2022-12-08T06:28:54.657Z,97630.56
2022-12-08T06:31:57.504Z,97630.56
2022-12-08T06:35:00.322Z,97635.59
2022-12-08T06:38:03.164Z,97633.78
2022-12-08T06:41:08.402Z,97637.84
2022-12-08T06:44:11.333Z,97637.84
2022-12-08T06:47:26.315Z,97632.22
2022-12-08T06:50:30.001Z,97629.63
2022-12-08T06:53:32.984Z,97642.00
2022-12-08T06:56:37.206Z,97642.19
2022-12-08T06:59:40.852Z,97635.66
2022-12-08T07:02:43.738Z,97648.97
2022-12-08T07:05:46.537Z,97643.06
2022-12-08T07:08:49.225Z,97647.13
2022-12-08T07:11:53.394Z,97638.63
2022-12-08T07:14:56.215Z,97643.66
2022-12-08T07:18:00.281Z,97647.03
2022-12-08T07:21:08.300Z,97646.41
2022-12-08T07:24:11.521Z,97650.44
2022-12-08T07:27:15.617Z,97640.22
2022-12-08T07:30:18.933Z,97643.22
2022-12-08T07:33:21.713Z,97643.03
2022-12-08T07:36:25.394Z,97645.81
2022-12-08T07:39:30.421Z,97652.63
2022-12-08T07:42:34.824Z,97650.94
2022-12-08T07:45:37.754Z,97656.38
2022-12-08T07:48:40.531Z,97647.81
2022-12-08T07:51:43.362Z,97644.31
2022-12-08T07:54:46.287Z,97642.88
2022-12-08T07:57:51.405Z,97638.41
2022-12-08T08:00:54.532Z,97635.72
2022-12-08T08:04:01.380Z,97636.66
2022-12-08T08:07:07.287Z,97630.94
2022-12-08T08:10:11.405Z,97630.53
2022-12-08T08:13:15.526Z,97635.88
2022-12-08T08:16:19.542Z,97628.63
2022-12-08T08:19:22.932Z,97627.94
2022-12-08T08:22:26.027Z,97619.59
2022-12-08T08:25:28.769Z,97619.13
2022-12-08T08:28:33.929Z,97612.97
2022-12-08T08:31:36.747Z,97609.16
2022-12-08T08:34:39.974Z,97607.94
2022-12-08T08:37:47.208Z,97618.38
2022-12-08T08:40:51.782Z,97618.66
2022-12-08T08:43:57.142Z,97621.78
2022-12-08T08:47:00.014Z,97616.97
2022-12-08T08:50:03.047Z,97615.97
2022-12-08T08:53:06.088Z,97612.88
2022-12-08T08:56:10.716Z,97615.19
2022-12-08T08:59:15.094Z,97610.25
2022-12-08T09:02:19.904Z,97604.97
2022-12-08T09:05:22.919Z,97602.34
2022-12-08T09:08:27.232Z,97608.53
2022-12-08T09:11:30.700Z,97613.38
2022-12-08T09:14:35.504Z,97604.03
2022-12-08T09:17:38.596Z,97596.78
2022-12-08T09:20:41.382Z,97592.41
2022-12-08T09:23:44.897Z,97597.50
2022-12-08T09:26:48.321Z,97589.34
2022-12-08T09:29:52.433Z,97583.53
2022-12-08T09:32:55.459Z,97587.38
2022-12-08T09:35:58.177Z,97581.38
2022-12-08T09:39:00.902Z,97579.19
2022-12-08T09:42:06.797Z,97570.78
2022-12-08T09:45:13.908Z,97573.50
2022-12-08T09:48:20.445Z,97576.50
2022-12-08T09:51:25.722Z,97578.41
2022-12-08T09:54:33.697Z,97580.06
2022-12-08T09:57:37.503Z,97576.22
2022-12-08T10:00:41.830Z,97561.16
2022-12-08T10:03:44.609Z,97567.06
2022-12-08T10:06:54.553Z,97571.47
2022-12-08T10:10:03.935Z,97570.59
2022-12-08T10:13:16.665Z,97558.34
2022-12-08T10:16:30.138Z,97552.38
2022-12-08T10:19:35.384Z,97544.22
2022-12-08T10:22:44.349Z,97535.69
2022-12-08T10:25:49.634Z,97534.69
2022-12-08T10:28:52.553Z,97530.66
2022-12-08T10:31:58.773Z,97521.16
2022-12-08T10:35:05.694Z,97534.09
2022-12-08T10:38:18.530Z,97528.94
2022-12-08T10:41:21.407Z,97529.41
2022-12-08T10:44:24.215Z,97526.13
2022-12-08T10:47:30.350Z,97523.09
2022-12-08T10:50:36.124Z,97520.91
2022-12-08T10:53:47.396Z,97519.56
2022-12-08T10:56:54.709Z,97513.69
2022-12-08T10:59:58.773Z,97511.59
2022-12-08T11:03:05.401Z,97510.03
2022-12-08T11:06:17.354Z,97496.25
2022-12-08T11:09:40.090Z,97494.19
2022-12-08T11:12:45.319Z,97478.03
2022-12-08T11:15:48.223Z,97483.88
2022-12-08T11:18:58.917Z,97475.09
2022-12-08T11:22:01.737Z,97470.84
2022-12-08T11:25:11.597Z,97468.66
2022-12-08T11:28:14.283Z,97467.25
2022-12-08T11:31:30.434Z,97456.84
2022-12-08T11:34:38.630Z,97458.94
2022-12-08T11:37:44.683Z,97456.00
2022-12-08T11:40:47.910Z,97456.19
2022-12-08T11:43:57.104Z,97456.75
2022-12-08T11:47:06.415Z,97453.34
2022-12-08T11:50:21.387Z,97448.53
2022-12-08T11:53:30.332Z,97446.69
2022-12-08T11:56:35.970Z,97440.88
2022-12-08T11:59:41.813Z,97453.44
2022-12-08T12:02:49.829Z,97442.25
2022-12-08T12:06:37.668Z,97445.50
2022-12-08T12:09:53.050Z,97440.75
2022-12-08T12:13:09.501Z,97440.56
2022-12-08T12:16:43.458Z,97438.78
2022-12-08T12:19:49.958Z,97430.31
2022-12-08T12:23:00.695Z,97430.34
2022-12-08T12:26:07.755Z,97431.41
2022-12-08T12:29:20.262Z,97425.03
2022-12-08T12:32:24.374Z,97426.69
2022-12-08T12:35:34.320Z,97422.66
2022-12-08T12:38:59.338Z,97420.00
2022-12-08T12:42:03.924Z,97412.84
2022-12-08T12:45:25.436Z,97412.59
2022-12-08T12:48:28.491Z,97417.34
2022-12-08T12:51:46.446Z,97407.25
2022-12-08T12:55:22.895Z,97399.50
2022-12-08T12:58:42.936Z,97401.66
2022-12-08T13:01:55.491Z,97391.00
2022-12-08T13:05:03.352Z,97388.59
2022-12-08T13:08:17.513Z,97392.06
2022-12-08T13:11:21.048Z,97390.44
2022-12-08T13:14:50.610Z,97390.44
2022-12-08T13:17:53.470Z,97387.56
2022-12-08T13:21:03.992Z,97396.56
2022-12-08T13:24:32.010Z,97396.06
2022-12-08T13:27:36.368Z,97390.97
2022-12-08T13:30:46.485Z,97393.91
2022-12-08T13:33:49.543Z,97394.94
2022-12-08T13:37:01.058Z,97391.50
2022-12-08T13:40:09.515Z,97380.81
2022-12-08T13:43:20.595Z,97381.34
2022-12-08T13:54:35.526Z,97382.44
2022-12-08T13:57:07.148Z,97384.28
2022-12-08T14:00:18.136Z,97381.31
2022-12-08T14:03:22.451Z,97378.63
2022-12-08T14:06:29.719Z,97377.56
2022-12-08T14:09:36.099Z,97376.25
2022-12-08T14:12:39.118Z,97383.94
2022-12-08T14:15:42.257Z,97369.06
2022-12-08T14:18:46.644Z,97378.34
2022-12-08T14:21:54.770Z,97382.31
2022-12-08T14:24:59.321Z,97374.66
2022-12-08T14:28:05.411Z,97373.84
2022-12-08T14:31:14.103Z,97373.03
2022-12-08T14:34:18.749Z,97381.22
2022-12-08T14:37:22.043Z,97388.34
2022-12-08T14:40:28.810Z,97383.00
2022-12-08T14:43:32.659Z,97387.78
2022-12-08T14:46:36.034Z,97388.56
2022-12-08T14:49:41.403Z,97381.66
2022-12-08T14:52:45.554Z,97383.78
2022-12-08T14:55:49.893Z,97386.16
2022-12-08T14:59:05.859Z,97383.22
2022-12-08T15:02:22.804Z,97378.44
2022-12-08T15:05:31.800Z,97380.59
2022-12-08T15:08:35.883Z,97376.63
2022-12-08T15:11:38.714Z,97366.81
2022-12-08T15:14:55.605Z,97380.31
2022-12-08T15:18:13.477Z,97383.97
2022-12-08T15:21:17.864Z,97374.91
2022-12-08T15:24:24.342Z,97374.34
2022-12-08T15:27:27.442Z,97370.78
2022-12-08T15:30:31.205Z,97379.00
2022-12-08T15:33:33.919Z,97375.81
2022-12-08T15:36:39.864Z,97372.31
2022-12-08T15:39:42.873Z,97366.69
2022-12-08T15:42:45.863Z,97374.31
2022-12-08T15:45:58.324Z,97366.34
2022-12-08T15:49:02.933Z,97371.66
2022-12-08T15:52:12.056Z,97382.97
2022-12-08T15:55:16.029Z,97374.53
2022-12-08T16:01:44.820Z,97368.72
2022-12-08T16:05:33.367Z,97361.06
2022-12-08T16:08:38.293Z,97357.38
2022-12-08T16:12:06.528Z,97352.06
2022-12-08T16:18:37.881Z,97344.84
2022-12-08T16:22:29.888Z,97352.06
2022-12-08T16:25:22.431Z,97346.75
2022-12-08T16:28:55.049Z,97348.81
2022-12-08T16:31:49.350Z,97352.69
2022-12-08T16:34:53.109Z,97349.75
2022-12-08T16:37:56.122Z,97346.28
2022-12-08T16:41:17.743Z,97339.59
2022-12-08T16:44:20.782Z,97342.47
2022-12-08T16:47:23.524Z,97339.81
2022-12-08T16:50:28.250Z,97344.56
2022-12-08T16:53:31.184Z,97331.25
2022-12-08T16:56:35.456Z,97336.00
2022-12-08T16:59:39.258Z,97340.00
2022-12-08T17:02:42.314Z,97346.84
2022-12-08T17:05:45.450Z,97354.81
2022-12-08T17:08:48.277Z,97352.44
2022-12-08T17:11:52.755Z,97349.03
2022-12-08T17:14:55.528Z,97340.16
2022-12-08T17:17:58.588Z,97342.00
2022-12-08T17:21:01.434Z,97343.63
2022-12-08T17:24:04.608Z,97348.91
2022-12-08T17:27:08.784Z,97340.66
2022-12-08T17:30:15.832Z,97342.50
2022-12-08T17:33:26.616Z,97335.03
2022-12-08T17:36:30.464Z,97345.03
2022-12-08T17:39:33.400Z,97344.91
2022-12-08T17:42:38.725Z,97350.47
2022-12-08T17:45:42.746Z,97348.56
2022-12-08T17:48:45.612Z,97342.94
2022-12-08T17:51:49.277Z,97340.81
2022-12-08T17:54:52.181Z,97333.91
2022-12-08T17:57:56.500Z,97344.69
2022-12-08T18:00:59.456Z,97348.38
2022-12-08T18:04:03.205Z,97354.44
2022-12-08T18:07:06.182Z,97357.06
2022-12-08T18:10:09.525Z,97361.25
2022-12-08T18:13:13.830Z,97365.44
2022-12-08T18:16:17.663Z,97358.28
2022-12-08T18:19:20.501Z,97352.13
2022-12-08T18:22:23.236Z,97357.72
2022-12-08T18:25:26.076Z,97345.13
2022-12-08T18:28:33.417Z,97348.06
2022-12-08T18:31:36.561Z,97344.06
2022-12-08T18:34:39.480Z,97339.81
2022-12-08T18:37:42.977Z,97347.75
2022-12-08T18:40:48.443Z,97348.03
2022-12-08T18:43:53.436Z,97341.97
2022-12-08T18:46:56.466Z,97333.78
2022-12-08T18:49:59.311Z,97327.69
2022-12-08T18:53:02.079Z,97328.97
2022-12-08T18:56:05.738Z,97327.94
2022-12-08T18:59:12.555Z,97337.03
2022-12-08T19:02:15.868Z,97337.97
2022-12-08T19:05:18.955Z,97327.78
2022-12-08T19:08:24.379Z,97323.31
2022-12-08T19:11:30.972Z,97328.81
2022-12-08T19:14:35.543Z,97333.03
2022-12-08T19:17:40.672Z,97324.28
2022-12-08T19:20:43.717Z,97326.84
2022-12-08T19:23:47.684Z,97333.44
2022-12-08T19:26:51.177Z,97319.66
2022-12-08T19:29:56.369Z,97324.78
2022-12-08T19:32:59.306Z,97321.53
2022-12-08T19:36:07.628Z,97315.41
2022-12-08T19:39:33.057Z,97312.47
2022-12-08T19:42:54.122Z,97323.13
2022-12-08T19:45:58.816Z,97320.66
2022-12-08T19:49:01.683Z,97318.25
2022-12-08T19:52:04.599Z,97313.44
2022-12-08T19:55:08.065Z,97315.69
2022-12-08T19:58:12.276Z,97307.59
2022-12-08T20:01:17.405Z,97309.34
2022-12-08T20:04:20.381Z,97302.53
2022-12-08T20:07:23.633Z,97309.25
2022-12-08T20:10:29.437Z,97302.75
2022-12-08T20:13:45.939Z,97294.19
2022-12-08T20:16:53.002Z,97297.31
2022-12-08T20:19:55.896Z,97306.97
2022-12-08T20:22:58.866Z,97307.13
2022-12-08T20:26:05.651Z,97308.50
2022-12-08T20:29:08.600Z,97304.16
2022-12-08T20:32:14.771Z,97307.84
2022-12-08T20:35:17.816Z,97310.25
2022-12-08T20:38:20.650Z,97312.72
2022-12-08T20:41:24.367Z,97312.88
2022-12-08T20:44:28.590Z,97311.72
2022-12-08T20:47:32.946Z,97318.16
2022-12-08T20:50:35.904Z,97318.16
2022-12-08T20:53:39.143Z,97312.13
2022-12-08T20:56:48.041Z,97319.88
2022-12-08T20:59:51.430Z,97312.44
2022-12-08T21:02:57.100Z,97304.50
2022-12-08T21:06:01.005Z,97314.06
2022-12-08T21:09:03.954Z,97309.34
2022-12-08T21:12:07.341Z,97307.19
2022-12-08T21:15:12.546Z,97306.38
2022-12-08T21:18:18.004Z,97301.25
2022-12-08T21:21:21.097Z,97303.31
2022-12-08T21:24:28.828Z,97304.03
2022-12-08T21:27:35.444Z,97303.81
2022-12-08T21:30:40.109Z,97304.75
2022-12-08T21:33:44.540Z,97297.06
2022-12-08T21:36:47.584Z,97297.44
2022-12-08T21:39:50.600Z,97296.28
2022-12-08T21:42:54.219Z,97306.84
2022-12-08T21:45:57.352Z,97303.63
2022-12-08T21:49:01.805Z,97305.59
2022-12-08T21:52:04.950Z,97307.78
2022-12-08T21:55:09.099Z,97306.19
2022-12-08T21:58:12.204Z,97312.38
2022-12-08T22:01:15.289Z,97310.06
2022-12-08T22:04:21.530Z,97315.34
2022-12-08T22:07:24.766Z,97305.53
2022-12-08T22:10:27.716Z,97301.50
2022-12-08T22:13:30.657Z,97310.31
2022-12-08T22:16:33.585Z,97312.16
2022-12-08T22:19:38.190Z,97312.16
2022-12-08T22:22:41.962Z,97311.34
2022-12-08T22:25:49.235Z,97315.84
2022-12-08T22:28:52.324Z,97306.31
2022-12-08T22:31:55.336Z,97305.84
2022-12-08T22:34:59.556Z,97306.06
2022-12-08T22:38:02.599Z,97306.63
2022-12-08T22:41:05.786Z,97299.78
2022-12-08T22:44:09.173Z,97296.56
2022-12-08T22:47:12.115Z,97298.50
2022-12-08T22:50:16.810Z,97292.09
2022-12-08T22:53:25.432Z,97293.81
2022-12-08T22:56:40.351Z,97284.97
2022-12-08T22:59:45.231Z,97282.78
2022-12-08T23:02:48.189Z,97290.94
2022-12-08T23:05:52.679Z,97280.81
2022-12-08T23:08:56.090Z,97282.44
2022-12-08T23:11:59.570Z,97283.25
2022-12-08T23:15:02.957Z,97274.88
2022-12-08T23:18:06.321Z,97267.44
2022-12-08T23:21:13.841Z,97275.66
2022-12-08T23:24:16.824Z,97270.94
2022-12-08T23:27:19.626Z,97261.91
2022-12-08T23:30:22.726Z,97256.97
2022-12-08T23:33:25.601Z,97263.06
2022-12-08T23:36:29.862Z,97261.97
2022-12-08T23:39:32.989Z,97249.38
2022-12-08T23:42:36.102Z,97247.78
2022-12-08T23:45:38.926Z,97243.41
2022-12-08T23:48:41.849Z,97242.13
2022-12-08T23:51:46.154Z,97243.03
2022-12-08T23:54:50.746Z,97236.06
2022-12-08T23:57:53.521Z,97224.50
